Time;durP1;ratioP1;P1;durP2;ratioP2;P2;SDS_P1;SDS_P2;PMS_P1;PMS_P2;Temp;Humidity;BMP_temperature;BMP_pressure;BME280_temperature;BME280_humidity;BME280_pressure;Samples;Min_cycle;Max_cycle;Signal;HPM_P1;HPM_P2
2022/07/02 00:01:59;;;;;;;3.50;1.17;;;15.30;99.90;;;;;;5087084;28;20046;-92
2022/07/02 00:04:33;;;;;;;2.10;1.00;;;14.90;99.90;;;;;;5071687;28;20078;-91
2022/07/02 00:06:59;;;;;;;3.45;0.80;;;15.50;99.90;;;;;;5104714;28;20043;-90
2022/07/02 00:09:30;;;;;;;3.80;0.90;;;15.00;99.90;;;;;;5087877;28;20039;-91
2022/07/02 00:11:58;;;;;;;2.08;0.80;;;15.00;99.90;;;;;;5104203;28;20164;-92
2022/07/02 00:14:25;;;;;;;1.88;0.90;;;14.90;99.90;;;;;;5094328;28;20043;-92
2022/07/02 00:16:54;;;;;;;5.15;0.90;;;15.00;99.90;;;;;;5078167;28;20042;-91
2022/07/02 00:19:21;;;;;;;6.90;0.93;;;14.90;99.90;;;;;;5076306;28;20141;-92
2022/07/02 00:21:47;;;;;;;3.22;1.10;;;14.90;99.90;;;;;;5077576;28;20310;-92
2022/07/02 00:24:13;;;;;;;3.17;0.90;;;14.90;99.90;;;;;;5093596;28;20058;-91
2022/07/02 00:26:40;;;;;;;1.75;0.63;;;14.90;99.90;;;;;;5079815;27;20043;-90
2022/07/02 00:29:26;;;;;;;3.25;0.80;;;14.90;99.90;;;;;;5099607;27;20039;-89
2022/07/02 00:31:52;;;;;;;1.45;0.68;;;14.90;99.90;;;;;;5102420;27;20043;-89
2022/07/02 00:34:19;;;;;;;5.60;1.05;;;14.80;99.90;;;;;;5110629;27;20043;-89
2022/07/02 00:36:45;;;;;;;1.77;0.90;;;14.80;99.90;;;;;;5080975;27;20053;-90
2022/07/02 00:39:11;;;;;;;1.50;0.80;;;14.80;99.90;;;;;;5113520;27;20130;-90
2022/07/02 00:41:38;;;;;;;5.13;1.20;;;14.80;99.90;;;;;;5080588;27;20081;-89
2022/07/02 00:44:05;;;;;;;5.63;1.27;;;15.50;99.90;;;;;;5079209;27;20054;-89
2022/07/02 00:46:32;;;;;;;5.43;1.00;;;14.80;99.90;;;;;;5097125;27;20046;-90
2022/07/02 00:49:00;;;;;;;4.30;1.30;;;14.70;99.90;;;;;;5079375;27;20047;-88
2022/07/02 00:51:26;;;;;;;6.13;1.20;;;14.70;99.90;;;;;;5097903;27;20087;-89
2022/07/02 00:53:52;;;;;;;2.88;1.00;;;14.70;99.90;;;;;;5078655;27;20031;-88
2022/07/02 00:56:17;;;;;;;3.13;1.15;;;14.70;99.90;;;;;;5080086;27;20058;-88
2022/07/02 00:58:43;;;;;;;1.52;0.95;;;14.60;99.90;;;;;;5063202;27;20054;-89
2022/07/02 01:01:09;;;;;;;3.88;1.45;;;14.60;99.90;;;;;;5112896;27;20443;-89
2022/07/02 01:03:37;;;;;;;8.27;1.50;;;14.60;99.90;;;;;;5080284;27;20129;-89
2022/07/02 01:06:02;;;;;;;3.60;1.08;;;14.60;99.90;;;;;;5079522;27;20047;-89
2022/07/02 01:11:17;;;;;;;8.90;1.25;;;14.50;99.90;;;;;;5111912;27;20505;-89
2022/07/02 01:13:43;;;;;;;2.83;1.25;;;14.50;99.90;;;;;;5082226;27;20529;-91
2022/07/02 01:16:09;;;;;;;5.95;1.55;;;14.80;99.90;;;;;;5080169;27;20123;-91
2022/07/02 01:18:36;;;;;;;3.17;1.00;;;14.50;99.90;;;;;;5095044;27;20480;-92
2022/07/02 01:21:03;;;;;;;2.85;1.00;;;14.90;99.90;;;;;;5097474;27;20501;-92
2022/07/02 01:23:29;;;;;;;4.18;1.10;;;14.40;99.90;;;;;;5095278;27;20039;-90
2022/07/02 01:25:55;;;;;;;4.47;1.23;;;14.40;99.90;;;;;;5096267;27;20130;-90
2022/07/02 01:28:21;;;;;;;5.20;1.50;;;14.50;99.90;;;;;;5095462;27;20042;-90
2022/07/02 01:30:48;;;;;;;3.38;1.08;;;14.40;99.90;;;;;;5078295;27;20039;-89
2022/07/02 01:33:14;;;;;;;7.43;1.80;;;14.40;99.90;;;;;;5095079;27;20048;-89
2022/07/02 01:35:39;;;;;;;2.78;1.27;;;14.40;99.90;;;;;;5077332;27;20043;-90
2022/07/02 01:38:05;;;;;;;7.25;1.42;;;14.40;99.90;;;;;;5078143;27;20043;-88
2022/07/02 01:40:31;;;;;;;2.42;1.27;;;14.40;99.90;;;;;;5077426;27;20383;-88
2022/07/02 01:42:57;;;;;;;3.88;1.42;;;14.40;99.90;;;;;;5079675;27;20104;-90
2022/07/02 01:45:23;;;;;;;11.27;1.60;;;14.30;99.90;;;;;;5078047;27;20486;-91
2022/07/02 01:47:48;;;;;;;2.05;1.40;;;14.30;99.90;;;;;;5078876;27;20042;-92
2022/07/02 01:50:14;;;;;;;5.40;1.52;;;14.30;99.90;;;;;;5111837;27;20137;-90
2022/07/02 01:52:40;;;;;;;2.03;1.02;;;14.30;99.90;;;;;;5077300;27;20051;-90
2022/07/02 01:55:06;;;;;;;4.20;1.20;;;15.20;99.90;;;;;;5078859;27;20042;-89
2022/07/02 01:57:35;;;;;;;7.20;1.45;;;14.30;99.90;;;;;;5076840;27;20505;-89
2022/07/02 02:00:10;;;;;;;5.53;1.45;;;14.30;99.90;;;;;;5112343;27;20404;-89
2022/07/02 02:02:36;;;;;;;3.00;1.00;;;14.20;99.90;;;;;;5094606;27;20039;-89
2022/07/02 02:05:02;;;;;;;6.50;1.48;;;14.20;99.90;;;;;;5094970;27;20046;-90
2022/07/02 02:07:29;;;;;;;6.70;1.77;;;14.20;99.90;;;;;;5077909;27;20068;-90
2022/07/02 02:09:54;;;;;;;2.47;1.27;;;14.20;99.90;;;;;;5076771;27;20039;-89
2022/07/02 02:12:21;;;;;;;5.68;1.40;;;14.20;99.90;;;;;;5077889;27;20035;-89
2022/07/02 02:14:47;;;;;;;2.05;0.93;;;14.20;99.90;;;;;;5110381;27;20043;-88
2022/07/02 02:17:12;;;;;;;4.68;1.33;;;14.20;99.90;;;;;;5078162;27;20050;-89
2022/07/02 02:19:38;;;;;;;4.45;1.25;;;14.20;99.90;;;;;;5059874;27;20055;-88
2022/07/02 02:22:04;;;;;;;6.05;1.88;;;14.20;99.90;;;;;;5093759;27;20134;-89
2022/07/02 02:24:30;;;;;;;2.95;1.30;;;14.10;99.90;;;;;;5094636;27;20493;-89
2022/07/02 02:26:57;;;;;;;5.22;1.30;;;14.10;99.90;;;;;;5081676;27;20138;-89
2022/07/02 02:29:23;;;;;;;3.72;1.33;;;14.10;99.90;;;;;;5107855;27;20061;-89
2022/07/02 02:31:48;;;;;;;3.60;1.50;;;14.70;99.90;;;;;;5060194;27;20036;-89
2022/07/02 02:34:14;;;;;;;4.47;1.35;;;14.10;99.90;;;;;;5061144;27;20522;-89
2022/07/02 02:36:40;;;;;;;4.97;1.33;;;14.50;99.90;;;;;;5076117;27;20382;-88
2022/07/02 02:39:05;;;;;;;3.83;1.27;;;14.10;99.90;;;;;;5093796;27;20088;-88
2022/07/02 02:41:31;;;;;;;7.72;1.20;;;14.40;99.90;;;;;;5110536;27;20398;-88
2022/07/02 02:43:57;;;;;;;5.35;1.48;;;14.20;99.90;;;;;;5076814;27;20553;-92
2022/07/02 02:46:22;;;;;;;3.33;1.20;;;14.40;99.90;;;;;;5077862;27;20039;-90
2022/07/02 02:48:48;;;;;;;5.45;1.25;;;14.10;99.90;;;;;;5092771;27;20046;-91
2022/07/02 02:51:15;;;;;;;7.22;1.20;;;14.10;99.90;;;;;;5061380;27;20086;-91
2022/07/02 02:53:45;;;;;;;8.50;1.60;;;14.10;99.90;;;;;;5093821;27;20047;-90
2022/07/02 02:56:11;;;;;;;5.45;1.70;;;14.10;99.90;;;;;;5061530;27;20101;-90
2022/07/02 02:58:37;;;;;;;3.88;1.42;;;14.10;99.90;;;;;;5076788;27;20074;-91
2022/07/02 03:01:04;;;;;;;4.50;1.65;;;14.10;99.90;;;;;;5093502;27;20086;-90
2022/07/02 03:03:30;;;;;;;3.42;1.27;;;14.10;99.90;;;;;;5094509;27;20119;-90
2022/07/02 03:05:55;;;;;;;8.65;2.00;;;14.00;99.90;;;;;;5076277;27;20470;-91
2022/07/02 03:08:21;;;;;;;3.40;1.15;;;14.00;99.90;;;;;;5060880;27;20126;-89
2022/07/02 03:10:47;;;;;;;4.93;1.60;;;14.10;99.90;;;;;;5087826;27;20035;-90
2022/07/02 03:13:14;;;;;;;3.72;1.15;;;14.20;99.90;;;;;;5094125;27;20035;-90
2022/07/02 03:15:40;;;;;;;8.98;1.73;;;14.00;99.90;;;;;;5100114;28;20039;-87
2022/07/02 03:18:06;;;;;;;6.03;2.08;;;14.80;99.90;;;;;;5080704;27;20031;-90
2022/07/02 03:20:32;;;;;;;7.68;1.13;;;14.00;99.90;;;;;;5100288;28;20129;-88
2022/07/02 03:22:58;;;;;;;11.02;1.83;;;14.00;99.90;;;;;;5106979;28;20081;-89
2022/07/02 03:25:24;;;;;;;5.28;0.90;;;14.10;99.90;;;;;;5107433;28;20039;-90
2022/07/02 03:27:50;;;;;;;2.75;1.15;;;14.10;99.90;;;;;;5092736;28;20039;-90
2022/07/02 03:30:15;;;;;;;5.18;1.27;;;14.10;99.90;;;;;;5088286;28;20410;-88
2022/07/02 03:32:41;;;;;;;4.40;1.50;;;14.20;99.90;;;;;;5070499;28;20050;-87
2022/07/02 03:35:07;;;;;;;5.47;1.67;;;14.10;99.90;;;;;;5095747;28;20088;-88
2022/07/02 03:37:32;;;;;;;5.47;1.52;;;14.10;99.90;;;;;;5079880;28;20100;-90
2022/07/02 03:39:58;;;;;;;6.78;1.50;;;14.10;99.90;;;;;;5061727;28;20070;-90
2022/07/02 03:42:24;;;;;;;7.85;1.60;;;14.10;99.90;;;;;;5080178;28;20447;-89
2022/07/02 03:44:50;;;;;;;4.80;1.50;;;14.30;99.90;;;;;;5078217;28;20510;-90
2022/07/02 03:47:16;;;;;;;5.85;1.40;;;14.10;99.90;;;;;;5096576;28;20468;-90
2022/07/02 03:49:42;;;;;;;3.72;1.38;;;14.10;99.90;;;;;;5092726;28;20043;-90
2022/07/02 03:52:08;;;;;;;3.53;1.30;;;14.20;99.90;;;;;;5093006;28;20054;-89
2022/07/02 03:54:34;;;;;;;5.10;1.63;;;14.20;99.90;;;;;;5110527;28;20039;-90
2022/07/02 03:56:59;;;;;;;6.65;1.73;;;14.20;99.90;;;;;;5093104;28;20165;-91
2022/07/02 03:59:25;;;;;;;3.40;1.10;;;14.20;99.90;;;;;;5060497;28;20051;-89
2022/07/02 04:01:54;;;;;;;6.15;1.90;;;14.20;99.90;;;;;;5077893;27;20397;-90
2022/07/02 04:04:20;;;;;;;4.80;1.45;;;14.30;99.90;;;;;;5081226;27;20512;-89
2022/07/02 04:06:46;;;;;;;8.18;1.63;;;15.10;99.90;;;;;;5079533;27;20047;-90
2022/07/02 04:09:12;;;;;;;9.35;1.55;;;14.30;99.90;;;;;;5081117;27;20595;-91
2022/07/02 04:11:38;;;;;;;6.03;1.50;;;14.40;99.90;;;;;;5064140;27;20138;-92
2022/07/02 04:14:04;;;;;;;5.88;1.73;;;14.30;99.90;;;;;;5063473;27;20074;-91
2022/07/02 04:16:30;;;;;;;3.10;1.55;;;14.90;99.90;;;;;;5066418;27;20040;-90
2022/07/02 04:18:56;;;;;;;9.75;1.95;;;13.90;99.90;;;;;;5086187;27;20085;-92
2022/07/02 04:21:22;;;;;;;4.47;1.65;;;14.50;99.90;;;;;;5097917;27;20063;-92
2022/07/02 04:23:48;;;;;;;6.20;1.75;;;14.50;99.90;;;;;;5090644;27;20035;-92
2022/07/02 04:26:13;;;;;;;6.13;1.88;;;14.40;99.90;;;;;;5064584;27;20138;-93
2022/07/02 04:28:39;;;;;;;6.47;1.75;;;14.50;99.90;;;;;;5080537;27;20035;-92
2022/07/02 04:31:05;;;;;;;4.60;1.40;;;14.50;99.90;;;;;;5080326;27;20047;-93
2022/07/02 04:33:30;;;;;;;8.43;1.98;;;14.60;99.90;;;;;;5064912;27;20526;-92
2022/07/02 04:35:56;;;;;;;5.18;1.67;;;14.60;99.90;;;;;;5062294;27;20074;-90
2022/07/02 04:38:22;;;;;;;12.80;2.20;;;14.60;99.90;;;;;;5097375;27;20082;-89
2022/07/02 04:40:48;;;;;;;5.45;1.83;;;14.70;99.90;;;;;;5095566;27;20131;-89
2022/07/02 04:43:14;;;;;;;6.13;2.10;;;14.90;99.90;;;;;;5079410;27;20451;-90
2022/07/02 04:45:39;;;;;;;16.83;1.77;;;14.80;99.90;;;;;;5095813;27;20039;-90
2022/07/02 04:48:05;;;;;;;4.07;1.52;;;14.90;99.90;;;;;;5078628;27;20505;-89
2022/07/02 04:50:31;;;;;;;6.30;1.88;;;14.90;99.90;;;;;;5096855;27;20035;-90
2022/07/02 04:52:56;;;;;;;5.63;2.20;;;14.90;99.90;;;;;;5061350;27;20134;-90
2022/07/02 04:55:22;;;;;;;7.82;2.17;;;15.60;99.90;;;;;;5080004;27;20557;-89
2022/07/02 04:57:48;;;;;;;5.60;2.15;;;15.10;99.90;;;;;;5077890;27;20062;-90
2022/07/02 05:00:14;;;;;;;4.72;1.80;;;15.10;99.90;;;;;;5062534;27;20095;-90
2022/07/02 05:02:40;;;;;;;5.57;2.10;;;15.20;99.90;;;;;;5061824;27;20123;-89
2022/07/02 05:05:06;;;;;;;3.20;2.35;;;15.20;99.90;;;;;;5095253;27;20484;-89
2022/07/02 05:07:31;;;;;;;6.43;2.28;;;15.30;99.90;;;;;;5062679;27;20047;-89
2022/07/02 05:09:58;;;;;;;7.60;2.30;;;15.40;99.90;;;;;;5077826;27;20091;-89
2022/07/02 05:12:24;;;;;;;8.20;2.60;;;15.40;99.90;;;;;;5079600;27;20553;-89
2022/07/02 05:14:51;;;;;;;10.68;3.17;;;15.50;99.90;;;;;;5077573;27;20043;-89
2022/07/02 05:17:17;;;;;;;8.38;3.17;;;15.50;99.90;;;;;;5095832;27;20054;-91
2022/07/02 05:19:43;;;;;;;4.38;3.20;;;15.50;99.90;;;;;;5077625;27;20043;-89
2022/07/02 05:22:09;;;;;;;4.88;3.53;;;15.50;99.90;;;;;;5094987;27;20039;-88
2022/07/02 05:24:34;;;;;;;9.60;3.25;;;15.80;99.90;;;;;;5095660;27;20041;-88
2022/07/02 05:27:00;;;;;;;9.10;3.50;;;15.70;99.90;;;;;;5077448;27;20533;-91
2022/07/02 05:29:26;;;;;;;8.30;3.03;;;15.60;99.90;;;;;;5079134;27;20070;-90
2022/07/02 05:31:51;;;;;;;6.70;2.92;;;15.60;99.90;;;;;;5060413;27;20053;-90
2022/07/02 05:34:17;;;;;;;6.28;3.00;;;15.60;99.90;;;;;;5095863;27;20348;-90
2022/07/02 05:36:43;;;;;;;8.35;3.20;;;15.60;99.90;;;;;;5061098;27;20075;-90
2022/07/02 05:39:09;;;;;;;5.15;2.90;;;15.70;99.90;;;;;;5061671;27;20435;-90
2022/07/02 05:41:34;;;;;;;5.60;3.00;;;15.70;99.90;;;;;;5078322;27;20043;-89
2022/07/02 05:44:06;;;;;;;8.02;3.15;;;15.80;99.90;;;;;;5063658;27;20130;-90
2022/07/02 05:46:32;;;;;;;6.78;3.33;;;16.20;99.90;;;;;;5061904;27;20079;-90
2022/07/02 05:48:57;;;;;;;4.25;2.55;;;15.80;99.90;;;;;;5060375;27;20039;-89
2022/07/02 05:51:23;;;;;;;7.53;2.97;;;15.90;99.90;;;;;;5078609;27;20038;-89
2022/07/02 05:53:51;;;;;;;6.25;2.88;;;15.90;99.90;;;;;;5060321;27;20039;-90
2022/07/02 05:56:17;;;;;;;6.28;3.00;;;16.00;99.90;;;;;;5078583;27;20047;-89
2022/07/02 05:58:43;;;;;;;6.50;2.67;;;16.70;99.90;;;;;;5061204;27;20357;-90
2022/07/02 06:01:09;;;;;;;6.07;2.38;;;16.40;99.90;;;;;;5111123;27;20050;-89
2022/07/02 06:03:34;;;;;;;6.97;3.00;;;16.10;99.90;;;;;;5061760;27;20526;-91
2022/07/02 06:08:44;;;;;;;6.30;2.38;;;16.20;99.90;;;;;;5083112;27;20054;-89
2022/07/02 06:11:11;;;;;;;8.20;2.63;;;16.20;99.90;;;;;;5095424;27;20039;-90
2022/07/02 06:13:37;;;;;;;7.00;2.60;;;16.60;99.90;;;;;;5101210;27;20046;-91
2022/07/02 06:16:03;;;;;;;4.43;2.20;;;16.30;99.90;;;;;;5075978;27;20067;-90
2022/07/02 06:18:29;;;;;;;3.92;1.70;;;16.40;99.90;;;;;;5085622;27;20109;-90
2022/07/02 06:20:55;;;;;;;5.55;2.30;;;16.50;99.90;;;;;;5095949;27;20551;-89
2022/07/02 06:23:21;;;;;;;6.15;2.40;;;16.60;99.90;;;;;;5061628;27;20039;-89
2022/07/02 06:25:48;;;;;;;6.25;2.35;;;16.70;99.90;;;;;;5067347;27;20431;-89
2022/07/02 06:28:14;;;;;;;5.18;2.05;;;16.70;99.90;;;;;;5097746;27;20039;-89
2022/07/02 06:30:40;;;;;;;4.80;1.83;;;16.90;99.90;;;;;;5113315;27;20043;-87
2022/07/02 06:33:06;;;;;;;4.75;1.98;;;16.90;99.90;;;;;;5119020;27;20043;-88
2022/07/02 06:35:33;;;;;;;4.60;1.83;;;16.90;99.90;;;;;;5103449;27;20126;-88
2022/07/02 06:37:59;;;;;;;4.38;2.05;;;17.00;99.90;;;;;;5087189;27;20536;-88
2022/07/02 06:40:24;;;;;;;5.47;2.15;;;17.10;99.90;;;;;;5102764;27;20043;-88
2022/07/02 06:42:50;;;;;;;6.43;1.90;;;17.20;99.90;;;;;;5102825;27;20039;-89
2022/07/02 06:45:16;;;;;;;5.65;2.22;;;17.20;99.90;;;;;;5065208;27;20179;-91
2022/07/02 06:47:42;;;;;;;7.32;2.63;;;17.30;99.90;;;;;;5078685;27;20509;-91
2022/07/02 06:50:09;;;;;;;5.00;1.45;;;18.10;99.90;;;;;;5078347;27;20032;-89
2022/07/02 06:52:35;;;;;;;5.07;1.80;;;17.40;99.90;;;;;;5060480;27;20085;-91
2022/07/02 06:55:01;;;;;;;3.38;1.30;;;16.80;99.90;;;;;;5096398;27;20047;-90
2022/07/02 06:57:27;;;;;;;4.60;1.30;;;17.60;99.90;;;;;;5083911;27;20494;-91
2022/07/02 06:59:53;;;;;;;6.47;1.60;;;17.70;99.90;;;;;;5080028;27;20085;-91
2022/07/02 07:02:19;;;;;;;3.90;1.38;;;17.80;99.90;;;;;;5076378;27;20134;-84
2022/07/02 07:04:45;;;;;;;3.95;1.23;;;17.90;99.90;;;;;;5128830;27;20054;-87
2022/07/02 07:07:11;;;;;;;6.95;1.40;;;17.90;99.90;;;;;;5093422;27;20035;-87
2022/07/02 07:09:37;;;;;;;4.15;1.38;;;18.00;99.90;;;;;;5076805;28;20140;-91
2022/07/02 07:12:04;;;;;;;9.25;1.15;;;18.00;99.90;;;;;;5113701;27;20035;-88
2022/07/02 07:14:34;;;;;;;8.80;1.30;;;18.20;99.90;;;;;;5110845;27;20051;-87
2022/07/02 07:17:00;;;;;;;5.80;1.10;;;18.30;99.90;;;;;;5079043;27;20066;-87
2022/07/02 07:19:26;;;;;;;6.25;1.30;;;18.30;99.90;;;;;;5092660;28;20086;-87
2022/07/02 07:21:52;;;;;;;3.15;0.98;;;18.40;99.90;;;;;;5094529;28;20054;-89
2022/07/02 07:24:17;;;;;;;7.47;0.98;;;18.50;99.90;;;;;;5060857;28;20121;-88
2022/07/02 07:26:43;;;;;;;3.53;0.70;;;18.50;99.90;;;;;;5094509;28;20066;-90
2022/07/02 07:29:09;;;;;;;1.80;0.57;;;18.60;99.90;;;;;;5079143;28;20176;-87
2022/07/02 07:31:36;;;;;;;6.95;1.38;;;18.60;99.90;;;;;;5076671;28;20039;-87
2022/07/02 07:34:03;;;;;;;4.55;1.15;;;18.70;99.90;;;;;;5112464;28;20503;-87
2022/07/02 07:36:29;;;;;;;3.03;0.70;;;18.80;99.90;;;;;;5078316;27;20050;-86
2022/07/02 07:38:55;;;;;;;4.13;1.27;;;18.80;99.90;;;;;;5099226;27;20050;-87
2022/07/02 07:41:22;;;;;;;4.78;1.10;;;18.90;99.90;;;;;;5081081;27;20035;-84
2022/07/02 07:43:48;;;;;;;4.60;0.90;;;19.00;99.90;;;;;;5113655;27;20482;-85
2022/07/02 07:46:14;;;;;;;3.40;0.70;;;19.00;99.90;;;;;;5118622;27;20105;-84
2022/07/02 07:48:40;;;;;;;3.92;0.90;;;19.10;99.90;;;;;;5099480;27;20046;-84
2022/07/02 07:51:06;;;;;;;4.38;1.00;;;19.10;99.90;;;;;;5066061;27;20035;-85
2022/07/02 07:53:32;;;;;;;1.20;0.57;;;19.20;99.90;;;;;;5098174;27;20051;-84
2022/07/02 07:55:58;;;;;;;4.07;1.08;;;19.30;99.90;;;;;;5097680;27;20557;-86
2022/07/02 07:58:24;;;;;;;1.50;0.63;;;19.40;99.90;;;;;;5098422;27;20043;-86
2022/07/02 08:00:50;;;;;;;1.23;0.50;;;19.40;99.90;;;;;;5114593;27;20587;-86
2022/07/02 08:03:17;;;;;;;1.98;0.60;;;19.40;99.90;;;;;;5098951;27;20108;-85
2022/07/02 08:05:43;;;;;;;1.70;0.65;;;19.40;99.90;;;;;;5114009;27;20046;-84
2022/07/02 08:08:08;;;;;;;0.55;0.40;;;19.50;99.90;;;;;;5100808;27;20062;-85
2022/07/02 08:10:34;;;;;;;4.35;0.82;;;19.60;99.90;;;;;;5091457;27;20047;-85
2022/07/02 08:13:00;;;;;;;1.67;0.50;;;19.60;99.90;;;;;;5126677;27;20076;-86
2022/07/02 08:15:27;;;;;;;1.88;0.40;;;19.70;99.90;;;;;;5114012;27;20075;-84
2022/07/02 08:17:52;;;;;;;2.92;0.55;;;19.80;99.90;;;;;;5131505;27;20049;-84
2022/07/02 08:20:18;;;;;;;6.03;0.82;;;19.80;99.90;;;;;;5096535;27;20047;-84
2022/07/02 08:22:46;;;;;;;3.38;0.60;;;19.90;99.90;;;;;;5078457;27;20047;-85
2022/07/02 08:25:13;;;;;;;4.18;0.63;;;19.90;99.90;;;;;;5080586;27;20076;-86
2022/07/02 08:27:39;;;;;;;1.88;0.65;;;19.90;99.90;;;;;;5094959;27;20047;-85
2022/07/02 08:30:06;;;;;;;2.65;0.60;;;19.90;99.90;;;;;;5079626;27;20095;-84
2022/07/02 08:32:32;;;;;;;3.90;0.73;;;19.90;99.90;;;;;;5078667;27;20043;-84
2022/07/02 08:34:58;;;;;;;2.03;0.63;;;20.00;99.90;;;;;;5078934;27;20042;-87
2022/07/02 08:37:25;;;;;;;3.85;0.65;;;20.10;99.90;;;;;;5113505;27;20113;-88
2022/07/02 08:39:51;;;;;;;3.90;0.68;;;20.10;99.90;;;;;;5094898;27;20393;-87
2022/07/02 08:42:27;;;;;;;5.13;0.57;;;20.20;99.90;;;;;;5096818;27;20167;-85
2022/07/02 08:44:56;;;;;;;2.00;0.60;;;20.30;99.90;;;;;;5094493;27;20494;-84
2022/07/02 08:47:23;;;;;;;2.67;0.40;;;20.40;99.90;;;;;;5112357;27;20050;-84
2022/07/02 08:49:51;;;;;;;3.78;0.70;;;20.50;99.90;;;;;;5095201;27;20042;-84
2022/07/02 08:52:18;;;;;;;1.58;0.50;;;20.60;99.90;;;;;;5094905;27;20039;-84
2022/07/02 08:54:46;;;;;;;2.13;0.50;;;20.60;99.90;;;;;;5113196;27;20118;-87
2022/07/02 08:57:13;;;;;;;2.97;0.40;;;20.70;99.90;;;;;;5111830;27;20043;-84
2022/07/02 08:59:39;;;;;;;1.77;0.50;;;20.60;99.90;;;;;;5079404;27;20039;-86
2022/07/02 09:02:07;;;;;;;3.83;0.35;;;20.60;99.90;;;;;;5094189;27;20046;-84
2022/07/02 09:04:34;;;;;;;2.65;0.60;;;20.10;99.90;;;;;;5113019;27;20050;-86
2022/07/02 09:07:02;;;;;;;2.28;0.50;;;20.80;99.90;;;;;;5095849;27;20085;-85
2022/07/02 09:09:30;;;;;;;1.90;0.50;;;20.90;99.90;;;;;;5094838;27;20077;-85
2022/07/02 09:11:58;;;;;;;2.60;0.30;;;21.00;99.90;;;;;;5096603;27;20416;-86
2022/07/02 09:14:24;;;;;;;1.33;0.38;;;21.10;99.40;;;;;;5094805;27;20399;-87
2022/07/02 09:16:51;;;;;;;3.13;0.50;;;21.20;98.30;;;;;;5079692;27;20516;-85
2022/07/02 09:19:17;;;;;;;1.70;0.38;;;21.20;96.90;;;;;;5077291;27;20228;-87
2022/07/02 09:21:47;;;;;;;0.95;0.20;;;21.20;96.10;;;;;;5095502;27;20042;-86
2022/07/02 09:24:13;;;;;;;2.38;0.40;;;21.30;94.90;;;;;;5094829;27;20031;-86
2022/07/02 09:26:39;;;;;;;0.85;0.30;;;21.30;94.60;;;;;;5077605;27;20058;-85
2022/07/02 09:29:05;;;;;;;3.42;0.50;;;21.40;93.60;;;;;;5112111;27;20047;-87
2022/07/02 09:31:32;;;;;;;1.65;0.20;;;21.40;92.30;;;;;;5093868;27;20100;-86
2022/07/02 09:34:00;;;;;;;2.05;0.20;;;21.50;91.10;;;;;;5112859;27;20100;-86
2022/07/02 09:36:26;;;;;;;5.05;0.28;;;21.50;90.20;;;;;;5077028;27;20049;-86
2022/07/02 09:38:54;;;;;;;0.73;0.30;;;21.50;89.00;;;;;;5113433;27;20035;-83
2022/07/02 09:41:23;;;;;;;1.35;0.30;;;21.60;88.30;;;;;;5111300;27;20039;-84
2022/07/02 09:44:07;;;;;;;0.17;0.10;;;21.60;88.10;;;;;;5093890;27;20036;-86
2022/07/02 09:46:33;;;;;;;1.35;0.32;;;21.80;82.70;;;;;;5061862;27;20043;-88
2022/07/02 09:49:08;;;;;;;0.90;0.30;;;21.90;86.00;;;;;;5076228;27;20150;-82
2022/07/02 09:51:48;;;;;;;5.60;1.75;;;22.00;81.60;;;;;;5111305;27;20572;-83
2022/07/02 09:54:22;;;;;;;2.00;0.98;;;22.10;81.60;;;;;;5110676;27;20057;-85
2022/07/02 09:56:56;;;;;;;3.15;0.50;;;22.10;79.80;;;;;;5093869;27;20043;-86
2022/07/02 09:59:23;;;;;;;2.00;0.50;;;22.20;81.10;;;;;;5110698;27;20093;-87
2022/07/02 10:01:49;;;;;;;6.40;1.15;;;22.30;81.10;;;;;;5092617;27;20079;-85
2022/07/02 10:04:15;;;;;;;0.57;0.30;;;22.40;79.50;;;;;;5094687;27;20039;-87
2022/07/02 10:06:43;;;;;;;2.17;0.22;;;22.50;77.50;;;;;;5076282;27;20256;-87
2022/07/02 10:09:11;;;;;;;1.13;0.20;;;22.60;76.80;;;;;;5078582;27;20071;-87
2022/07/02 10:11:38;;;;;;;1.55;0.22;;;22.60;75.80;;;;;;5116079;27;20047;-88
2022/07/02 10:14:04;;;;;;;0.85;0.22;;;22.60;75.10;;;;;;5101750;27;20039;-86
2022/07/02 10:16:30;;;;;;;0.93;0.20;;;22.70;75.00;;;;;;5111952;27;20176;-88
2022/07/02 10:18:58;;;;;;;5.60;0.50;;;22.90;76.30;;;;;;5076593;27;20122;-86
2022/07/02 10:21:25;;;;;;;0.95;0.20;;;23.00;72.50;;;;;;5094836;27;20386;-84
2022/07/02 10:23:51;;;;;;;1.27;0.45;;;23.00;73.20;;;;;;5114356;27;20115;-89
2022/07/02 10:26:17;;;;;;;2.20;0.30;;;23.00;72.60;;;;;;5096581;27;20188;-92
2022/07/02 10:28:44;;;;;;;2.60;0.47;;;23.00;72.40;;;;;;5112404;27;20084;-88
2022/07/02 10:31:19;;;;;;;0.77;0.20;;;23.00;70.80;;;;;;5077918;27;20134;-89
2022/07/02 10:34:09;;;;;;;1.63;0.35;;;23.00;68.40;;;;;;5095426;27;20055;-89
2022/07/02 10:36:35;;;;;;;1.95;0.32;;;23.10;67.40;;;;;;5110558;27;20134;-87
2022/07/02 10:39:02;;;;;;;2.83;0.30;;;23.20;69.00;;;;;;5064772;27;20074;-87
2022/07/02 10:41:30;;;;;;;1.20;0.20;;;23.20;68.10;;;;;;5099347;27;20162;-86
2022/07/02 10:43:57;;;;;;;1.60;0.32;;;23.30;67.90;;;;;;5101233;27;20506;-87
2022/07/02 10:46:25;;;;;;;2.55;0.40;;;23.40;67.20;;;;;;5106219;27;20157;-86
2022/07/02 10:48:57;;;;;;;2.17;0.30;;;23.50;67.60;;;;;;5095377;27;20035;-88
2022/07/02 10:51:28;;;;;;;;;;;23.60;65.40;;;;;;5100267;27;20031;-93
2022/07/02 10:54:01;;;;;;;1.35;0.20;;;23.50;60.30;;;;;;5095243;27;19926;-89
2022/07/02 10:56:28;;;;;;;2.30;0.45;;;23.50;65.20;;;;;;5094707;27;20378;-93
2022/07/02 10:58:54;;;;;;;0.93;0.20;;;23.50;66.00;;;;;;5096361;27;20039;-92
2022/07/02 11:01:22;;;;;;;1.90;0.20;;;23.50;66.00;;;;;;5076993;27;20054;-89
2022/07/02 11:03:56;;;;;;;1.23;0.20;;;23.60;65.20;;;;;;5081817;27;20039;-93
2022/07/02 11:06:24;;;;;;;1.75;0.35;;;23.70;64.40;;;;;;5093476;27;20501;-93
2022/07/02 11:08:52;;;;;;;2.22;0.25;;;23.70;62.30;;;;;;5096807;27;20044;-88
2022/07/02 11:11:35;;;;;;;1.98;0.20;;;23.50;62.10;;;;;;5092796;27;20103;-95
2022/07/02 11:14:17;;;;;;;0.60;0.30;;;23.30;62.00;;;;;;5094993;28;20040;-91
2022/07/02 11:16:47;;;;;;;;;;;23.30;61.40;;;;;;5080375;28;20058;-90
2022/07/02 11:19:24;;;;;;;1.00;0.28;;;23.20;59.60;;;;;;5096346;28;19919;-93
2022/07/02 11:21:57;;;;;;;1.55;0.20;;;23.30;62.90;;;;;;5100957;27;20039;-96
2022/07/02 11:24:24;;;;;;;0.28;0.17;;;23.50;63.70;;;;;;5082775;28;20043;-95
2022/07/02 11:26:51;;;;;;;1.63;0.20;;;23.80;63.00;;;;;;5097800;28;20146;-93
2022/07/02 11:29:17;;;;;;;3.08;0.20;;;23.90;62.10;;;;;;5096048;28;20039;-93
2022/07/02 11:31:49;;;;;;;0.88;0.30;;;23.90;61.50;;;;;;5080588;28;20104;-94
2022/07/02 11:34:16;;;;;;;2.73;0.40;;;23.80;60.90;;;;;;5095194;28;20055;-89
2022/07/02 11:36:42;;;;;;;2.58;0.30;;;23.70;60.70;;;;;;5109825;28;20229;-87
2022/07/02 11:39:15;;;;;;;1.23;0.30;;;23.60;60.20;;;;;;5093365;28;20051;-86
2022/07/02 11:41:41;;;;;;;2.05;0.28;;;23.50;60.10;;;;;;5109270;28;20668;-91
2022/07/02 11:44:15;;;;;;;1.02;0.20;;;23.50;60.80;;;;;;5076969;28;20095;-90
2022/07/02 11:46:43;;;;;;;0.82;0.20;;;23.50;59.30;;;;;;5092582;28;20095;-90
2022/07/02 11:49:20;;;;;;;0.65;0.20;;;23.40;60.60;;;;;;5093245;28;20044;-90
2022/07/02 11:51:47;;;;;;;2.25;0.32;;;23.40;59.20;;;;;;5093913;28;20530;-88
2022/07/02 11:54:13;;;;;;;1.42;0.25;;;23.40;59.70;;;;;;5075274;28;20035;-91
2022/07/02 11:56:41;;;;;;;1.00;0.30;;;23.30;59.60;;;;;;5077416;28;20419;-87
2022/07/02 11:59:12;;;;;;;1.80;0.40;;;23.30;60.20;;;;;;5109321;28;20090;-89
2022/07/02 12:01:39;;;;;;;2.38;0.20;;;23.40;59.90;;;;;;5109926;28;20089;-91
2022/07/02 12:04:08;;;;;;;2.15;0.75;;;23.50;60.60;;;;;;5103550;27;20090;-94
2022/07/02 12:06:39;;;;;;;0.93;0.40;;;23.60;60.40;;;;;;5098827;28;20036;-92
2022/07/02 12:09:07;;;;;;;1.85;0.20;;;23.60;59.60;;;;;;5097350;28;20027;-92
2022/07/02 12:11:39;;;;;;;4.88;0.38;;;23.60;60.20;;;;;;5079952;28;20039;-92
2022/07/02 12:14:07;;;;;;;2.15;0.20;;;23.70;59.40;;;;;;5097534;27;20043;-95
2022/07/02 12:16:34;;;;;;;1.02;0.30;;;23.80;59.70;;;;;;5078205;28;20378;-93
2022/07/02 12:19:11;;;;;;;1.73;0.40;;;23.80;59.10;;;;;;5096869;28;20530;-91
2022/07/02 12:21:41;;;;;;;0.82;0.20;;;23.70;58.60;;;;;;5078495;28;20509;-91
2022/07/02 12:24:28;;;;;;;2.65;0.50;;;23.60;59.30;;;;;;5097031;27;20054;-91
2022/07/02 12:26:54;;;;;;;1.05;0.22;;;23.60;59.20;;;;;;5100383;27;20043;-92
2022/07/02 12:32:38;;;;;;;1.80;0.35;;;23.40;58.00;;;;;;5117563;27;20050;-95
2022/07/02 12:35:10;;;;;;;2.45;0.55;;;23.40;57.80;;;;;;5085049;27;20134;-90
2022/07/02 12:37:43;;;;;;;1.17;0.30;;;23.30;59.30;;;;;;5082267;27;20074;-87
2022/07/02 12:40:12;;;;;;;1.98;0.30;;;23.50;60.40;;;;;;5101270;27;20134;-92
2022/07/02 12:42:47;;;;;;;0.55;0.17;;;23.70;60.20;;;;;;5086467;27;20104;-89
2022/07/02 12:45:48;;;;;;;0.65;0.10;;;23.80;59.70;;;;;;5108702;27;20043;-93
2022/07/02 12:48:19;;;;;;;7.53;0.40;;;24.00;58.10;;;;;;5040307;28;20055;-92
2022/07/02 12:50:47;;;;;;;0.50;0.20;;;24.10;59.80;;;;;;5005301;28;20056;-95
2022/07/02 12:53:18;;;;;;;1.85;0.20;;;24.20;60.30;;;;;;5021276;28;20049;-92
2022/07/02 12:55:52;;;;;;;1.95;0.30;;;24.20;58.70;;;;;;5019907;28;20048;-92
2022/07/02 12:58:18;;;;;;;2.60;0.25;;;24.40;57.90;;;;;;5036499;28;20091;-90